Time;durP1;ratioP1;P1;durP2;ratioP2;P2;SDS_P1;SDS_P2;PMS_P1;PMS_P2;Temp;Humidity;BMP_temperature;BMP_pressure;BME280_temperature;BME280_humidity;BME280_pressure;Samples;Min_cycle;Max_cycle;Signal;HPM_P1;HPM_P2
2023/09/10 00:00:42;;;;;;;15.93;13.38;;;;;;;18.67;100.00;96803.25;5012652;28;20048;-69
2023/09/10 00:03:08;;;;;;;18.33;13.25;;;;;;;18.62;100.00;96811.22;5010297;28;20037;-69
2023/09/10 00:05:33;;;;;;;16.02;13.30;;;;;;;18.59;100.00;96812.88;5018229;28;20038;-70
2023/09/10 00:08:02;;;;;;;16.92;14.18;;;;;;;18.64;100.00;96811.63;5013083;28;20128;-69
2023/09/10 00:10:27;;;;;;;19.30;15.20;;;;;;;18.64;100.00;96808.84;5016482;28;20066;-68
2023/09/10 00:12:53;;;;;;;18.75;14.82;;;;;;;18.58;100.00;96807.72;5014917;28;20128;-69
2023/09/10 00:15:18;;;;;;;18.20;13.88;;;;;;;18.53;100.00;96818.09;5015393;28;20045;-67
2023/09/10 00:17:43;;;;;;;19.15;15.15;;;;;;;18.39;100.00;96807.19;5021463;28;20037;-70
2023/09/10 00:20:10;;;;;;;20.60;15.88;;;;;;;18.21;100.00;96810.19;5011032;28;20052;-70
2023/09/10 00:22:36;;;;;;;16.65;14.52;;;;;;;18.21;100.00;96806.63;5019824;28;20052;-71
2023/09/10 00:25:02;;;;;;;17.90;14.25;;;;;;;18.22;100.00;96799.88;5013168;28;20064;-70
2023/09/10 00:27:27;;;;;;;18.33;14.60;;;;;;;18.29;100.00;96808.91;5018814;28;20045;-70
2023/09/10 00:29:53;;;;;;;24.13;16.13;;;;;;;18.37;100.00;96811.59;5004170;28;20072;-67
2023/09/10 00:32:18;;;;;;;19.40;14.95;;;;;;;18.33;100.00;96809.63;5018381;28;20587;-71
2023/09/10 00:34:45;;;;;;;16.35;14.55;;;;;;;18.32;100.00;96815.59;5023003;28;20053;-69
2023/09/10 00:37:12;;;;;;;19.38;15.70;;;;;;;18.19;100.00;96812.59;5009330;28;20431;-69
2023/09/10 00:39:38;;;;;;;21.05;16.80;;;;;;;18.10;100.00;96812.31;5021266;28;20049;-69
2023/09/10 00:42:03;;;;;;;20.67;16.92;;;;;;;17.88;100.00;96809.75;5020794;28;20041;-69
2023/09/10 00:44:29;;;;;;;20.58;17.35;;;;;;;17.55;100.00;96803.72;5020319;28;20125;-70
2023/09/10 00:46:55;;;;;;;21.55;18.45;;;;;;;17.26;100.00;96807.94;5037915;28;20042;-68
2023/09/10 00:49:21;;;;;;;24.83;19.48;;;;;;;17.16;100.00;96809.59;5036404;28;20305;-68
2023/09/10 00:51:47;;;;;;;23.90;20.25;;;;;;;17.09;100.00;96810.47;5014265;28;20068;-69
2023/09/10 00:54:15;;;;;;;24.52;20.55;;;;;;;17.07;100.00;96810.06;5009304;28;20120;-69
2023/09/10 00:56:40;;;;;;;22.20;18.55;;;;;;;17.18;100.00;96813.53;5003337;28;20042;-70
2023/09/10 00:59:08;;;;;;;21.98;18.70;;;;;;;17.37;100.00;96806.66;5010828;28;20099;-67
2023/09/10 01:01:34;;;;;;;20.80;18.15;;;;;;;17.54;100.00;96802.16;5017862;28;20053;-70
2023/09/10 01:04:00;;;;;;;20.42;16.77;;;;;;;17.65;100.00;96801.28;5006607;28;20033;-71
2023/09/10 01:06:26;;;;;;;18.77;15.82;;;;;;;17.73;100.00;96806.31;5011099;28;20516;-69
2023/09/10 01:08:52;;;;;;;18.70;15.65;;;;;;;17.77;100.00;96807.06;5001073;28;20497;-71
2023/09/10 01:11:42;;;;;;;23.27;15.00;;;;;;;17.79;100.00;96801.13;5011235;28;20042;-70
2023/09/10 01:14:33;;;;;;;16.35;14.65;;;;;;;17.87;100.00;96810.19;5014474;28;20042;-69
2023/09/10 01:17:08;;;;;;;18.75;14.45;;;;;;;17.90;100.00;96812.13;5013313;28;20044;-71
2023/09/10 01:20:00;;;;;;;16.80;13.98;;;;;;;17.88;100.00;96809.75;5010867;28;20049;-73
2023/09/10 01:22:32;;;;;;;17.85;14.10;;;;;;;17.87;100.00;96824.03;5004954;28;20048;-68
2023/09/10 01:24:57;;;;;;;19.88;13.63;;;;;;;17.82;100.00;96821.66;5003268;28;20489;-71
2023/09/10 01:27:23;;;;;;;16.50;12.80;;;;;;;17.77;100.00;96826.47;5007709;28;20460;-71
2023/09/10 01:29:48;;;;;;;16.95;14.00;;;;;;;17.78;100.00;96822.50;5007588;28;20041;-71
2023/09/10 01:32:53;;;;;;;18.58;13.60;;;;;;;17.67;100.00;96821.81;5019433;28;20452;-71
2023/09/10 01:35:39;;;;;;;15.65;12.80;;;;;;;17.67;100.00;96821.03;5012333;28;20572;-72
2023/09/10 01:38:20;;;;;;;20.58;13.70;;;;;;;17.65;100.00;96818.66;5007993;28;20033;-68
2023/09/10 01:40:53;;;;;;;21.35;16.02;;;;;;;17.42;100.00;96819.28;5006177;28;20128;-70
2023/09/10 01:43:19;;;;;;;21.30;17.00;;;;;;;17.08;100.00;96822.69;5012118;28;20129;-71
2023/09/10 01:45:45;;;;;;;18.55;15.13;;;;;;;17.04;100.00;96819.19;5017105;28;20123;-71
2023/09/10 01:48:10;;;;;;;18.27;15.65;;;;;;;17.14;100.00;96820.28;5012713;28;20610;-71
2023/09/10 01:50:35;;;;;;;17.75;15.48;;;;;;;17.10;100.00;96809.25;5021783;22;20041;-67
2023/09/10 01:53:01;;;;;;;19.25;17.15;;;;;;;17.11;100.00;96821.13;5029920;28;20071;-70
2023/09/10 01:55:26;;;;;;;23.60;17.77;;;;;;;16.99;100.00;96823.16;5037191;28;20053;-69
2023/09/10 01:57:54;;;;;;;19.75;15.48;;;;;;;17.04;100.00;96818.41;5043209;28;20522;-68
2023/09/10 02:00:20;;;;;;;18.65;14.85;;;;;;;17.09;100.00;96816.00;5037829;28;20119;-69
2023/09/10 02:02:45;;;;;;;18.70;15.15;;;;;;;17.19;100.00;96815.09;5054432;28;20135;-69
2023/09/10 02:05:11;;;;;;;17.20;14.60;;;;;;;17.25;100.00;96822.97;5042454;28;20037;-69
2023/09/10 02:07:36;;;;;;;19.23;15.65;;;;;;;17.26;100.00;96822.56;5051535;28;20087;-69
2023/09/10 02:10:02;;;;;;;17.95;14.55;;;;;;;17.29;100.00;96820.97;5032744;28;20087;-68
2023/09/10 02:12:28;;;;;;;14.98;13.25;;;;;;;17.31;100.00;96822.13;5048505;28;20555;-69
2023/09/10 02:14:53;;;;;;;16.10;13.48;;;;;;;17.30;100.00;96820.53;5036777;28;20043;-68
2023/09/10 02:17:19;;;;;;;16.70;13.38;;;;;;;17.30;100.00;96820.53;5035267;28;20046;-68
2023/09/10 02:19:44;;;;;;;14.70;12.40;;;;;;;17.32;100.00;96825.69;5047020;28;20445;-68
2023/09/10 02:22:10;;;;;;;16.27;13.15;;;;;;;17.35;100.00;96824.88;5039023;28;20044;-68
2023/09/10 02:24:35;;;;;;;17.00;13.02;;;;;;;17.38;100.00;96821.28;5034732;28;20056;-68
2023/09/10 02:27:00;;;;;;;17.25;13.63;;;;;;;17.38;100.00;96833.16;5040417;28;20517;-68
2023/09/10 02:29:26;;;;;;;17.38;13.02;;;;;;;17.23;100.00;96826.16;5032808;28;20041;-67
2023/09/10 02:31:51;;;;;;;19.23;14.77;;;;;;;17.07;100.00;96829.44;5048252;28;20044;-68
2023/09/10 02:34:16;;;;;;;20.10;15.23;;;;;;;16.86;100.00;96830.38;5043028;28;20040;-68
2023/09/10 02:36:42;;;;;;;22.52;16.33;;;;;;;16.69;100.00;96822.94;5037382;28;20187;-68
2023/09/10 02:39:07;;;;;;;18.00;16.10;;;;;;;16.53;100.00;96823.41;5035267;28;20040;-68
2023/09/10 02:41:33;;;;;;;23.67;16.55;;;;;;;16.46;100.00;96826.22;5037855;28;20046;-69
2023/09/10 02:43:58;;;;;;;21.38;19.08;;;;;;;16.36;100.00;96814.03;5052591;28;20049;-68
2023/09/10 02:46:25;;;;;;;21.08;17.55;;;;;;;16.36;100.00;96816.78;5037147;28;20472;-68
2023/09/10 02:48:50;;;;;;;21.08;15.68;;;;;;;16.38;100.00;96819.94;5039925;28;20069;-68
2023/09/10 02:51:16;;;;;;;19.48;15.23;;;;;;;16.51;100.00;96812.78;5032362;28;20079;-68
2023/09/10 02:53:41;;;;;;;16.33;14.05;;;;;;;16.62;100.00;96815.47;5035731;28;20060;-68
2023/09/10 02:56:06;;;;;;;17.45;14.15;;;;;;;16.71;100.00;96826.06;5035804;28;20553;-68
2023/09/10 02:58:32;;;;;;;22.48;15.02;;;;;;;16.70;100.00;96822.53;5049980;28;20056;-68
2023/09/10 03:01:05;;;;;;;17.50;13.90;;;;;;;16.68;100.00;96816.63;5048357;28;20037;-68
2023/09/10 03:03:32;;;;;;;19.42;15.88;;;;;;;16.77;100.00;96832.78;5051567;28;20056;-68
2023/09/10 03:05:57;;;;;;;19.40;14.90;;;;;;;16.76;100.00;96828.41;5038529;28;20116;-68
2023/09/10 03:08:23;;;;;;;15.80;13.68;;;;;;;16.73;100.00;96826.50;5035118;28;20073;-68
2023/09/10 03:10:48;;;;;;;20.88;13.98;;;;;;;16.63;100.00;96833.63;5044181;28;20041;-68
2023/09/10 03:13:13;;;;;;;17.45;12.68;;;;;;;16.72;100.00;96831.22;5036416;28;20792;-69
2023/09/10 03:15:39;;;;;;;15.00;12.95;;;;;;;16.74;100.00;96834.34;5048095;28;20052;-68
2023/09/10 03:18:04;;;;;;;14.88;12.15;;;;;;;16.78;100.00;96828.81;5045626;28;20044;-67
2023/09/10 03:20:30;;;;;;;14.98;12.50;;;;;;;16.78;100.00;96832.38;5033553;28;20048;-67
2023/09/10 03:22:58;;;;;;;15.55;13.00;;;;;;;16.63;100.00;96831.66;5029986;28;20419;-68
2023/09/10 03:25:25;;;;;;;17.45;13.20;;;;;;;16.52;100.00;96832.91;5046875;28;20048;-68
2023/09/10 03:27:50;;;;;;;18.50;14.30;;;;;;;16.37;100.00;96835.75;5024232;28;20048;-68
2023/09/10 03:30:18;;;;;;;16.23;14.48;;;;;;;16.25;100.00;96836.19;5045027;28;20041;-68
2023/09/10 03:32:44;;;;;;;18.67;13.00;;;;;;;16.34;100.00;96833.00;5033114;28;20049;-68
2023/09/10 03:35:11;;;;;;;18.42;13.20;;;;;;;16.44;100.00;96834.94;5022896;28;20431;-68
2023/09/10 03:37:36;;;;;;;15.93;12.98;;;;;;;16.55;100.00;96835.66;5037755;28;20045;-69
2023/09/10 03:40:04;;;;;;;16.92;13.43;;;;;;;16.63;100.00;96825.34;5036466;28;20043;-69
2023/09/10 03:42:30;;;;;;;15.23;12.98;;;;;;;16.69;100.00;96832.03;5036718;28;20060;-68
2023/09/10 03:44:55;;;;;;;13.95;12.30;;;;;;;16.73;100.00;96830.03;5038625;28;20044;-68
2023/09/10 03:47:21;;;;;;;16.13;12.23;;;;;;;16.72;100.00;96835.97;5048660;28;20048;-69
2023/09/10 03:49:46;;;;;;;15.13;12.73;;;;;;;16.63;100.00;96825.34;5050081;28;20083;-69
2023/09/10 03:52:19;;;;;;;14.82;12.73;;;;;;;16.53;100.00;96840.00;5022155;28;20406;-69
2023/09/10 03:54:44;;;;;;;18.05;13.50;;;;;;;16.54;100.00;96833.28;5025102;28;20076;-69
2023/09/10 03:57:09;;;;;;;18.95;14.23;;;;;;;16.60;100.00;96834.44;5020608;28;20041;-69
2023/09/10 03:59:35;;;;;;;19.25;14.50;;;;;;;16.67;100.00;96834.38;5029740;28;20127;-68
2023/09/10 04:02:00;;;;;;;17.00;14.15;;;;;;;16.73;100.00;96838.31;5033252;28;20044;-68
2023/09/10 04:04:26;;;;;;;17.08;14.35;;;;;;;16.74;100.00;96833.56;5040167;28;20068;-68
2023/09/10 04:06:51;;;;;;;16.73;12.95;;;;;;;16.74;100.00;96833.56;5029255;28;20523;-70
2023/09/10 04:09:17;;;;;;;16.55;13.77;;;;;;;16.64;100.00;96835.22;5024678;28;20076;-68
2023/09/10 04:11:42;;;;;;;15.45;13.63;;;;;;;16.42;100.00;96832.56;5033138;28;20055;-68
2023/09/10 04:14:08;;;;;;;18.77;13.15;;;;;;;16.46;100.00;96840.03;5042967;28;20072;-68
2023/09/10 04:16:33;;;;;;;16.88;13.20;;;;;;;16.52;100.00;96839.22;5025166;28;20049;-68
2023/09/10 04:18:58;;;;;;;21.73;14.30;;;;;;;16.52;100.00;96833.69;5051587;28;20134;-68
2023/09/10 04:21:24;;;;;;;15.68;13.50;;;;;;;16.56;100.00;96834.44;5032444;28;20406;-68
2023/09/10 04:23:49;;;;;;;16.75;14.25;;;;;;;16.61;100.00;96833.25;5037562;28;20395;-68
2023/09/10 04:26:15;;;;;;;18.13;13.88;;;;;;;16.65;100.00;96836.00;5022887;28;20140;-68
2023/09/10 04:28:41;;;;;;;17.63;14.27;;;;;;;16.56;100.00;96836.44;5029762;28;20605;-69
2023/09/10 04:31:12;;;;;;;17.45;14.35;;;;;;;16.44;100.00;96835.72;5027349;28;20048;-69
2023/09/10 04:33:37;;;;;;;22.23;16.58;;;;;;;16.20;100.00;96837.38;5028699;28;20041;-69
2023/09/10 04:36:03;;;;;;;24.23;18.52;;;;;;;15.80;100.00;96835.91;5027898;28;20442;-69
2023/09/10 04:38:28;;;;;;;23.38;19.15;;;;;;;15.71;100.00;96838.28;5017545;28;20038;-69
2023/09/10 04:40:55;;;;;;;20.75;16.85;;;;;;;15.75;100.00;96850.13;5031168;28;20041;-68
2023/09/10 04:43:21;;;;;;;18.25;15.82;;;;;;;15.92;100.00;96851.25;5033160;28;20044;-69
2023/09/10 04:45:46;;;;;;;19.63;15.93;;;;;;;16.10;100.00;96840.97;5033454;28;20183;-68
2023/09/10 04:48:12;;;;;;;19.23;15.23;;;;;;;16.27;100.00;96846.84;5038388;28;20403;-69
2023/09/10 04:50:39;;;;;;;16.88;14.05;;;;;;;16.35;100.00;96846.41;5046100;28;20513;-69
2023/09/10 04:53:04;;;;;;;19.98;14.45;;;;;;;16.40;100.00;96847.97;5028469;28;20095;-68
2023/09/10 04:55:30;;;;;;;14.38;12.50;;;;;;;16.40;100.00;96842.44;5055564;28;20142;-68
2023/09/10 04:57:55;;;;;;;16.60;13.20;;;;;;;16.39;100.00;96846.41;5061166;28;20028;-68
2023/09/10 05:00:21;;;;;;;16.42;12.45;;;;;;;16.42;100.00;96848.34;5059867;28;20161;-67
2023/09/10 05:02:46;;;;;;;16.13;12.18;;;;;;;16.47;100.00;96858.19;5032844;28;20044;-68
2023/09/10 05:05:11;;;;;;;19.63;12.85;;;;;;;16.53;100.00;96865.69;5047321;28;20048;-67
2023/09/10 05:07:37;;;;;;;18.27;13.30;;;;;;;16.64;100.00;96865.63;5048562;28;20461;-67
2023/09/10 05:10:02;;;;;;;15.13;13.48;;;;;;;16.69;100.00;96862.47;5046145;28;20092;-69
2023/09/10 05:12:28;;;;;;;17.55;13.60;;;;;;;16.76;100.00;96865.19;5020902;28;20092;-68
2023/09/10 05:14:53;;;;;;;19.65;13.95;;;;;;;16.86;100.00;96865.56;5048194;28;20053;-68
2023/09/10 05:17:19;;;;;;;15.15;12.32;;;;;;;17.00;100.00;96869.00;5031040;28;20091;-67
2023/09/10 05:19:46;;;;;;;16.67;12.60;;;;;;;17.10;100.00;96872.88;5049752;28;20551;-68
2023/09/10 05:22:12;;;;;;;15.45;11.88;;;;;;;17.45;100.00;96875.81;5038371;28;20403;-68
2023/09/10 05:24:37;;;;;;;15.20;11.98;;;;;;;17.76;100.00;96869.22;5045300;28;20041;-67
2023/09/10 05:27:03;;;;;;;13.95;11.18;;;;;;;18.07;100.00;96868.53;5047804;28;20104;-69
2023/09/10 05:29:29;;;;;;;16.27;10.73;;;;;;;18.40;100.00;96875.31;5040815;28;20044;-68
2023/09/10 05:31:54;;;;;;;16.77;10.98;;;;;;;18.72;100.00;96872.13;5032091;28;20049;-69
2023/09/10 05:34:20;;;;;;;14.85;10.52;;;;;;;18.98;100.00;96877.34;5040308;28;20044;-68
2023/09/10 05:36:45;;;;;;;12.52;10.40;;;;;;;19.29;100.00;96875.34;5035987;28;20072;-68
2023/09/10 05:39:10;;;;;;;12.93;10.48;;;;;;;19.56;100.00;96875.28;5041079;28;20050;-68
2023/09/10 05:41:36;;;;;;;16.75;9.65;;;;;;;19.81;100.00;96888.03;5042316;28;20048;-68
2023/09/10 05:44:02;;;;;;;11.95;10.32;;;;;;;20.25;100.00;96884.03;5041392;28;20103;-68
2023/09/10 05:46:28;;;;;;;12.73;10.02;;;;;;;20.61;100.00;96888.91;5037828;28;20055;-68
2023/09/10 05:48:53;;;;;;;11.70;10.23;;;;;;;20.88;100.00;96885.19;5032537;28;20130;-68
2023/09/10 05:51:18;;;;;;;10.48;9.38;;;;;;;21.10;100.00;96893.06;5038330;28;20087;-66
2023/09/10 05:53:44;;;;;;;11.85;9.20;;;;;;;21.87;100.00;96893.66;5045512;28;20036;-67
2023/09/10 05:56:10;;;;;;;13.45;9.95;;;;;;;22.48;100.00;96892.84;5040590;28;20107;-67
2023/09/10 05:58:35;;;;;;;11.27;9.45;;;;;;;22.78;100.00;96884.44;5045521;28;20414;-67
2023/09/10 06:01:01;;;;;;;12.15;8.75;;;;;;;23.37;96.36;96893.47;5052495;28;20102;-67
2023/09/10 06:03:26;;;;;;;11.85;9.43;;;;;;;23.94;93.05;96891.63;5047903;28;20510;-67
2023/09/10 06:05:51;;;;;;;12.88;9.85;;;;;;;24.36;85.94;96907.38;5048086;28;20064;-67
2023/09/10 06:08:17;;;;;;;11.25;8.82;;;;;;;24.85;83.10;96908.84;5038010;28;20451;-67
2023/09/10 06:10:42;;;;;;;12.20;9.15;;;;;;;24.99;82.22;96905.53;5043175;28;20219;-67
2023/09/10 06:13:08;;;;;;;10.27;8.30;;;;;;;25.23;77.05;96913.44;5044396;28;20053;-67
2023/09/10 06:15:33;;;;;;;12.55;8.35;;;;;;;25.81;75.93;96912.75;5051744;28;20426;-67
2023/09/10 06:17:58;;;;;;;12.05;8.55;;;;;;;26.13;73.92;96902.25;5041979;28;20042;-67
2023/09/10 06:20:24;;;;;;;10.45;8.35;;;;;;;26.46;71.75;96915.66;5041101;28;20542;-67
2023/09/10 06:22:50;;;;;;;10.82;7.95;;;;;;;26.90;69.15;96915.34;5042502;28;20045;-67
2023/09/10 06:25:16;;;;;;;10.13;7.95;;;;;;;27.40;67.23;96913.03;5027892;28;20568;-67
2023/09/10 06:27:41;;;;;;;12.75;8.23;;;;;;;27.30;66.96;96922.78;5050025;28;20037;-68
2023/09/10 06:30:07;;;;;;;9.02;7.93;;;;;;;27.76;64.33;96928.19;5034549;28;20159;-67
2023/09/10 06:32:32;;;;;;;13.52;8.93;;;;;;;27.85;64.79;96930.97;5052144;28;20044;-67
2023/09/10 06:34:58;;;;;;;11.05;8.48;;;;;;;28.37;62.65;96936.44;5054366;28;20064;-67
2023/09/10 06:37:23;;;;;;;9.88;8.85;;;;;;;28.26;62.10;96930.59;5037789;28;20476;-67
2023/09/10 06:39:49;;;;;;;8.40;7.45;;;;;;;28.79;60.63;96931.91;5031606;28;20504;-67
2023/09/10 06:42:16;;;;;;;11.38;8.73;;;;;;;29.17;58.94;96935.94;5051997;28;20032;-67
2023/09/10 06:44:44;;;;;;;11.82;8.77;;;;;;;29.46;58.21;96938.00;5036985;28;20061;-67
2023/09/10 06:47:11;;;;;;;11.90;9.30;;;;;;;29.60;57.57;96932.81;5023045;28;20049;-66
2023/09/10 06:49:36;;;;;;;13.77;9.73;;;;;;;29.68;56.95;96928.31;5030770;28;20053;-69
2023/09/10 06:52:03;;;;;;;14.73;10.93;;;;;;;29.76;57.47;96932.31;5032372;28;20058;-68
2023/09/10 06:54:28;;;;;;;16.08;10.70;;;;;;;29.86;56.44;96936.56;5016700;28;20053;-67
2023/09/10 06:56:54;;;;;;;16.13;11.82;;;;;;;30.07;57.48;96937.38;5034521;28;20069;-67
2023/09/10 06:59:21;;;;;;;14.80;11.18;;;;;;;30.46;55.57;96934.31;5014933;28;20044;-67
2023/09/10 07:01:46;;;;;;;15.02;12.15;;;;;;;30.88;54.36;96938.63;5040605;28;20044;-67
2023/09/10 07:04:16;;;;;;;16.85;12.75;;;;;;;31.04;53.98;96942.94;5052209;28;20049;-67
2023/09/10 07:06:42;;;;;;;17.67;13.77;;;;;;;31.04;53.99;96937.28;5059148;28;20041;-67
2023/09/10 07:09:08;;;;;;;16.13;12.93;;;;;;;31.03;54.81;96935.72;5036501;28;20041;-66
2023/09/10 07:11:33;;;;;;;16.75;12.10;;;;;;;31.28;53.91;96943.91;5050545;28;20052;-67
2023/09/10 07:13:58;;;;;;;16.85;11.68;;;;;;;31.61;53.50;96949.88;5030699;28;20041;-68
2023/09/10 07:16:26;;;;;;;13.98;11.90;;;;;;;31.91;52.03;96941.09;5015471;28;20129;-67
2023/09/10 07:18:52;;;;;;;13.93;12.23;;;;;;;31.79;51.18;96945.91;5041119;28;20084;-67
2023/09/10 07:21:17;;;;;;;13.55;11.45;;;;;;;32.12;51.35;96941.75;5034437;28;20503;-67
2023/09/10 07:23:43;;;;;;;15.07;12.00;;;;;;;32.42;50.40;96943.44;5026444;28;20060;-68
2023/09/10 07:26:08;;;;;;;15.60;11.88;;;;;;;32.68;49.42;96946.13;5044681;28;20037;-68
2023/09/10 07:28:33;;;;;;;16.75;12.88;;;;;;;33.03;48.72;96950.63;5032959;28;20085;-67
2023/09/10 07:30:59;;;;;;;15.73;12.32;;;;;;;33.11;48.19;96948.81;5033543;28;20479;-67
2023/09/10 07:33:24;;;;;;;14.32;11.90;;;;;;;32.61;50.04;96941.75;5028185;28;20045;-67
2023/09/10 07:35:50;;;;;;;19.75;12.85;;;;;;;32.88;49.74;96945.16;5021494;28;20038;-67
2023/09/10 07:38:15;;;;;;;14.40;12.43;;;;;;;32.89;49.48;96946.72;5024478;28;20037;-68
2023/09/10 07:40:41;;;;;;;15.13;12.77;;;;;;;33.10;47.88;96955.81;5030424;28;20079;-68
2023/09/10 07:43:07;;;;;;;16.35;11.80;;;;;;;33.49;47.79;96953.03;5025013;28;20076;-66
2023/09/10 07:45:32;;;;;;;16.65;14.90;;;;;;;32.47;50.00;96951.97;5040816;28;20079;-65
2023/09/10 07:47:59;;;;;;;16.95;12.65;;;;;;;33.07;49.09;96953.97;5028781;28;20634;-66
2023/09/10 07:50:27;;;;;;;13.43;11.43;;;;;;;32.99;48.99;96950.09;5044627;28;20055;-67
2023/09/10 07:52:54;;;;;;;16.08;11.98;;;;;;;33.67;47.38;96960.28;5037647;28;20096;-67
2023/09/10 07:55:21;;;;;;;15.13;13.52;;;;;;;34.04;46.80;96962.03;5027045;28;20515;-66
2023/09/10 07:57:47;;;;;;;24.05;20.17;;;;;;;34.17;46.11;96963.56;5047496;28;20132;-69
2023/09/10 08:00:13;;;;;;;16.38;13.05;;;;;;;32.86;49.11;96961.91;5034397;28;20462;-68
2023/09/10 08:02:38;;;;;;;14.65;12.68;;;;;;;34.07;45.87;96954.53;5036219;28;20103;-68
2023/09/10 08:05:05;;;;;;;13.32;11.90;;;;;;;34.32;45.45;96966.13;5045585;28;20045;-67
2023/09/10 08:07:32;;;;;;;15.50;12.52;;;;;;;33.75;46.03;96963.38;5024359;28;20160;-68
2023/09/10 08:09:57;;;;;;;13.15;10.73;;;;;;;32.75;49.17;96957.78;5044489;28;20522;-70
2023/09/10 08:12:22;;;;;;;15.80;13.02;;;;;;;32.87;48.00;96961.41;5034078;28;20045;-68
2023/09/10 08:14:48;;;;;;;15.80;11.80;;;;;;;33.40;47.64;96958.94;5032222;28;20064;-68
2023/09/10 08:17:13;;;;;;;11.85;10.45;;;;;;;33.87;46.90;96953.53;5039838;28;20029;-68
2023/09/10 08:19:39;;;;;;;15.25;11.35;;;;;;;33.64;47.61;96960.50;5028674;28;20041;-68
2023/09/10 08:22:04;;;;;;;17.25;11.45;;;;;;;34.27;46.32;96957.09;5027643;28;20087;-67
2023/09/10 08:24:30;;;;;;;14.35;12.23;;;;;;;33.52;46.75;96956.88;5030359;28;20061;-68
2023/09/10 08:26:55;;;;;;;11.07;9.23;;;;;;;33.62;46.72;96958.19;5029911;28;20045;-69
2023/09/10 08:29:20;;;;;;;12.10;10.63;;;;;;;35.07;42.12;96959.59;5019194;28;29486;-68
2023/09/10 08:31:46;;;;;;;16.60;11.90;;;;;;;33.62;45.72;96958.19;5027861;28;20519;-68
2023/09/10 08:34:11;;;;;;;12.23;10.48;;;;;;;33.87;45.31;96959.22;5022411;28;20412;-67
2023/09/10 08:36:37;;;;;;;10.70;9.60;;;;;;;35.23;41.97;96970.91;5042985;28;20487;-69
2023/09/10 08:39:02;;;;;;;12.00;10.35;;;;;;;35.40;41.44;96970.78;5044953;28;20041;-68
2023/09/10 08:41:36;;;;;;;12.38;10.60;;;;;;;34.79;43.32;96969.06;5027042;28;20052;-69
2023/09/10 08:44:03;;;;;;;12.10;9.82;;;;;;;35.12;41.80;96965.25;5026441;28;20053;-66
2023/09/10 08:46:31;;;;;;;12.55;10.35;;;;;;;34.06;44.64;96955.81;5024161;28;20059;-67
2023/09/10 08:49:00;;;;;;;11.63;10.43;;;;;;;34.09;44.37;96951.94;5027585;28;20049;-69
2023/09/10 08:51:27;;;;;;;13.00;10.73;;;;;;;33.97;43.79;96951.19;5036386;28;20052;-66
2023/09/10 08:53:55;;;;;;;13.52;10.73;;;;;;;34.88;42.81;96950.91;5030420;28;20041;-69
2023/09/10 08:56:21;;;;;;;15.32;10.18;;;;;;;34.96;42.35;96951.91;5021781;28;20042;-68
2023/09/10 08:58:48;;;;;;;12.05;9.55;;;;;;;35.74;40.79;96956.28;5044570;28;20088;-67
2023/09/10 09:01:14;;;;;;;12.77;10.13;;;;;;;35.07;42.11;96957.53;5023214;28;20040;-67
2023/09/10 09:03:39;;;;;;;11.38;8.93;;;;;;;35.55;41.55;96950.47;5026697;28;20045;-67
2023/09/10 09:06:05;;;;;;;12.57;9.98;;;;;;;35.10;44.94;96950.00;5015521;28;20041;-66
2023/09/10 09:08:33;;;;;;;13.00;11.70;;;;;;;34.98;44.63;96937.91;5027108;28;20053;-67
2023/09/10 09:11:05;;;;;;;19.45;12.90;;;;;;;33.63;47.94;96936.22;5047623;28;20064;-69
2023/09/10 09:13:37;;;;;;;13.18;11.77;;;;;;;33.56;48.90;96929.00;5037250;28;20123;-69
2023/09/10 09:16:03;;;;;;;17.40;13.82;;;;;;;33.34;49.34;96932.63;5040393;28;20098;-68
2023/09/10 09:18:30;;;;;;;15.77;12.80;;;;;;;33.05;50.45;96933.88;5042199;28;20479;-68
2023/09/10 09:21:01;;;;;;;16.65;13.00;;;;;;;32.92;51.27;96937.19;5033394;28;20187;-69
2023/09/10 09:23:42;;;;;;;17.17;13.30;;;;;;;31.79;54.88;96926.06;5038354;28;20057;-68
2023/09/10 09:26:10;;;;;;;13.88;12.27;;;;;;;31.87;53.39;96936.94;5035512;28;20037;-67
2023/09/10 09:28:35;;;;;;;14.15;11.05;;;;;;;31.99;52.34;96933.66;5052123;28;20430;-67
2023/09/10 09:31:02;;;;;;;14.40;11.52;;;;;;;31.68;53.24;96943.00;5046057;28;20040;-68
2023/09/10 09:33:28;;;;;;;15.50;10.98;;;;;;;31.95;51.59;96935.19;5034640;28;20048;-68
2023/09/10 09:35:53;;;;;;;13.18;11.13;;;;;;;31.97;51.47;96938.28;5048937;28;20052;-68
2023/09/10 09:38:20;;;;;;;14.20;11.07;;;;;;;31.97;50.97;96930.56;5045409;28;20046;-69
2023/09/10 09:40:46;;;;;;;13.18;10.85;;;;;;;31.39;52.48;96935.53;5050077;28;20075;-68
2023/09/10 09:43:12;;;;;;;12.60;11.30;;;;;;;30.84;53.77;96945.78;5040431;28;20044;-67
2023/09/10 09:45:38;;;;;;;14.75;12.05;;;;;;;30.51;55.14;96932.06;5044030;28;20053;-68
2023/09/10 09:48:04;;;;;;;11.68;10.27;;;;;;;31.41;53.14;96935.81;5043756;28;20063;-68
2023/09/10 09:50:30;;;;;;;13.65;10.60;;;;;;;31.57;52.66;96938.03;5049550;28;20041;-68
2023/09/10 09:52:56;;;;;;;15.05;11.75;;;;;;;31.47;51.37;96930.97;5049672;28;20098;-68
2023/09/10 09:55:22;;;;;;;12.35;11.05;;;;;;;31.36;51.61;96940.13;5045214;28;20053;-69
2023/09/10 09:57:50;;;;;;;12.13;10.82;;;;;;;31.44;51.07;96935.59;5051770;28;20052;-67
2023/09/10 10:00:17;;;;;;;14.85;12.32;;;;;;;30.42;54.85;96928.09;5049690;28;20127;-67
2023/09/10 10:02:44;;;;;;;14.75;13.18;;;;;;;28.83;62.10;96924.06;5054204;28;20056;-67
2023/09/10 10:05:09;;;;;;;32.70;22.83;;;;;;;30.17;58.37;96918.25;5039093;28;20044;-67
2023/09/10 10:07:40;;;;;;;13.88;12.15;;;;;;;31.05;56.02;96921.84;5053402;28;20405;-67
2023/09/10 10:10:14;;;;;;;13.98;12.30;;;;;;;31.39;54.79;96910.84;5045580;28;20471;-67
2023/09/10 10:12:40;;;;;;;12.45;10.95;;;;;;;31.82;53.15;96921.47;5049719;28;20065;-68
2023/09/10 10:15:08;;;;;;;12.68;11.05;;;;;;;32.34;51.78;96912.75;5047390;28;20040;-68
2023/09/10 10:17:34;;;;;;;12.60;9.90;;;;;;;32.60;51.11;96911.06;5053771;28;20199;-68
2023/09/10 10:20:04;;;;;;;13.95;11.10;;;;;;;32.29;51.17;96905.00;5050962;28;20515;-68
2023/09/10 10:22:32;;;;;;;12.63;10.10;;;;;;;32.41;51.90;96905.81;5058894;28;20064;-69
2023/09/10 10:24:58;;;;;;;16.17;10.32;;;;;;;32.28;52.31;96902.69;5035096;28;20060;-69
2023/09/10 10:27:25;;;;;;;14.98;11.05;;;;;;;32.81;51.03;96892.56;5047208;28;20062;-69
2023/09/10 10:29:51;;;;;;;18.58;11.20;;;;;;;32.69;50.87;96894.59;5053051;28;20063;-69
2023/09/10 10:32:39;;;;;;;13.93;11.45;;;;;;;32.12;52.93;96893.56;5048580;28;20571;-70
2023/09/10 10:35:06;;;;;;;17.75;11.95;;;;;;;31.89;53.85;96892.69;5046251;28;20045;-69
2023/09/10 10:37:47;;;;;;;15.63;11.43;;;;;;;31.00;56.30;96890.69;5043955;28;20076;-69
2023/09/10 10:40:18;;;;;;;17.35;11.73;;;;;;;31.45;57.20;96880.50;5032619;28;20435;-68
2023/09/10 10:42:57;;;;;;;13.95;12.13;;;;;;;31.00;59.61;96873.72;5052593;28;20190;-68
2023/09/10 10:45:24;;;;;;;15.60;12.68;;;;;;;30.92;59.48;96887.56;5037845;28;20092;-68
2023/09/10 10:47:50;;;;;;;16.85;12.77;;;;;;;31.00;59.81;96882.97;5039227;28;20056;-68
2023/09/10 10:50:26;;;;;;;17.80;13.05;;;;;;;31.04;60.43;96872.25;5031944;28;20037;-68
2023/09/10 10:52:59;;;;;;;14.57;12.93;;;;;;;31.10;59.54;96871.50;5038087;28;20048;-68
2023/09/10 10:55:26;;;;;;;15.77;12.57;;;;;;;31.21;59.67;96869.53;5041539;28;20820;-68
2023/09/10 10:57:55;;;;;;;13.43;12.02;;;;;;;31.05;60.31;96873.78;5045322;28;20050;-70
2023/09/10 11:00:21;;;;;;;17.33;13.45;;;;;;;31.02;60.58;96868.34;5047112;28;20044;-69
2023/09/10 11:03:07;;;;;;;13.85;12.43;;;;;;;30.67;62.78;96855.16;5054402;28;20056;-69
2023/09/10 11:08:33;;;;;;;16.58;13.90;;;;;;;30.21;63.50;96859.47;5029782;28;20041;-69
2023/09/10 11:11:01;;;;;;;16.88;13.90;;;;;;;30.08;66.76;96854.19;5047525;28;20524;-69
2023/09/10 11:13:27;;;;;;;14.48;12.50;;;;;;;30.14;67.05;96847.84;5031526;28;20052;-69
2023/09/10 11:16:04;;;;;;;17.13;13.32;;;;;;;30.35;65.37;96843.75;5059215;28;20211;-67